sensor_id;sensor_type;location;lat;lon;timestamp;P1;P2;P0
14880;PMS7003;7533;51.278;12.588;2022-07-23T00:00:38;8.40;7.80;6.00
14880;PMS7003;7533;51.278;12.588;2022-07-23T00:05:41;8.40;8.40;6.40
14880;PMS7003;7533;51.278;12.588;2022-07-23T00:10:44;13.40;8.40;5.00
14880;PMS7003;7533;51.278;12.588;2022-07-23T00:15:49;9.80;8.80;6.40
14880;PMS7003;7533;51.278;12.588;2022-07-23T00:20:51;9.20;9.20;5.20
14880;PMS7003;7533;51.278;12.588;2022-07-23T00:25:54;9.20;9.00;6.20
14880;PMS7003;7533;51.278;12.588;2022-07-23T00:30:59;8.00;8.00;6.00
14880;PMS7003;7533;51.278;12.588;2022-07-23T00:36:02;9.80;9.00;5.60
14880;PMS7003;7533;51.278;12.588;2022-07-23T00:41:05;9.00;8.60;6.00
14880;PMS7003;7533;51.278;12.588;2022-07-23T00:46:09;10.00;10.00;5.60
14880;PMS7003;7533;51.278;12.588;2022-07-23T00:51:12;8.60;8.60;5.80
14880;PMS7003;7533;51.278;12.588;2022-07-23T00:56:16;10.60;8.00;7.00
14880;PMS7003;7533;51.278;12.588;2022-07-23T01:01:20;10.20;9.40;6.20
14880;PMS7003;7533;51.278;12.588;2022-07-23T01:06:23;8.20;8.20;5.60
14880;PMS7003;7533;51.278;12.588;2022-07-23T01:11:26;8.00;8.00;5.00
14880;PMS7003;7533;51.278;12.588;2022-07-23T01:16:31;9.60;9.00;6.40
14880;PMS7003;7533;51.278;12.588;2022-07-23T01:21:35;11.40;9.80;6.80
14880;PMS7003;7533;51.278;12.588;2022-07-23T01:26:42;11.40;10.80;6.00
14880;PMS7003;7533;51.278;12.588;2022-07-23T01:31:47;10.20;10.20;6.60
14880;PMS7003;7533;51.278;12.588;2022-07-23T01:36:50;8.80;8.40;5.00
14880;PMS7003;7533;51.278;12.588;2022-07-23T01:41:54;9.00;8.80;6.60
14880;PMS7003;7533;51.278;12.588;2022-07-23T01:46:58;9.40;8.80;5.40
14880;PMS7003;7533;51.278;12.588;2022-07-23T01:52:01;10.60;9.80;5.40
14880;PMS7003;7533;51.278;12.588;2022-07-23T01:57:14;9.20;9.00;6.40
14880;PMS7003;7533;51.278;12.588;2022-07-23T02:02:17;9.00;8.00;5.40
14880;PMS7003;7533;51.278;12.588;2022-07-23T02:07:20;9.60;9.60;6.80
14880;PMS7003;7533;51.278;12.588;2022-07-23T02:12:27;10.20;10.00;6.00
14880;PMS7003;7533;51.278;12.588;2022-07-23T02:17:29;10.80;10.60;6.80
14880;PMS7003;7533;51.278;12.588;2022-07-23T02:22:35;10.00;9.20;5.00
14880;PMS7003;7533;51.278;12.588;2022-07-23T02:27:40;10.20;9.20;6.80
14880;PMS7003;7533;51.278;12.588;2022-07-23T02:32:43;11.00;9.40;7.20
14880;PMS7003;7533;51.278;12.588;2022-07-23T02:37:46;9.60;8.20;4.60
14880;PMS7003;7533;51.278;12.588;2022-07-23T02:42:53;11.80;11.40;7.00
14880;PMS7003;7533;51.278;12.588;2022-07-23T02:47:55;10.40;9.40;6.40
14880;PMS7003;7533;51.278;12.588;2022-07-23T02:52:58;12.00;12.00;6.40
14880;PMS7003;7533;51.278;12.588;2022-07-23T02:58:02;11.80;11.80;8.80
14880;PMS7003;7533;51.278;12.588;2022-07-23T03:03:05;12.80;11.40;7.80
14880;PMS7003;7533;51.278;12.588;2022-07-23T03:08:09;17.40;13.40;8.00
14880;PMS7003;7533;51.278;12.588;2022-07-23T03:13:18;14.40;11.40;7.60
14880;PMS7003;7533;51.278;12.588;2022-07-23T03:18:21;12.60;12.00;8.80
14880;PMS7003;7533;51.278;12.588;2022-07-23T03:23:24;14.20;13.00;9.40
14880;PMS7003;7533;51.278;12.588;2022-07-23T03:28:28;16.40;12.80;9.00
14880;PMS7003;7533;51.278;12.588;2022-07-23T03:33:32;14.00;12.00;8.40
14880;PMS7003;7533;51.278;12.588;2022-07-23T03:38:35;11.20;11.20;8.40
14880;PMS7003;7533;51.278;12.588;2022-07-23T03:43:39;13.00;12.00;7.20
14880;PMS7003;7533;51.278;12.588;2022-07-23T03:48:45;13.00;11.60;7.80
14880;PMS7003;7533;51.278;12.588;2022-07-23T03:53:48;14.60;13.20;8.00
14880;PMS7003;7533;51.278;12.588;2022-07-23T03:58:52;14.60;12.00;9.40
14880;PMS7003;7533;51.278;12.588;2022-07-23T04:03:55;12.00;10.80;7.40
14880;PMS7003;7533;51.278;12.588;2022-07-23T04:08:59;12.60;12.60;8.60
14880;PMS7003;7533;51.278;12.588;2022-07-23T04:14:05;13.00;12.40;8.80
14880;PMS7003;7533;51.278;12.588;2022-07-23T04:19:08;13.40;12.80;9.20
14880;PMS7003;7533;51.278;12.588;2022-07-23T04:24:24;17.40;14.60;9.60
14880;PMS7003;7533;51.278;12.588;2022-07-23T04:29:28;14.80;13.00;9.00
14880;PMS7003;7533;51.278;12.588;2022-07-23T04:34:31;15.80;15.20;10.80
14880;PMS7003;7533;51.278;12.588;2022-07-23T04:39:34;17.60;14.60;10.00
14880;PMS7003;7533;51.278;12.588;2022-07-23T04:44:38;19.00;17.80;10.80
14880;PMS7003;7533;51.278;12.588;2022-07-23T04:49:42;14.00;12.00;8.50
14880;PMS7003;7533;51.278;12.588;2022-07-23T04:54:45;13.00;12.25;8.25
14880;PMS7003;7533;51.278;12.588;2022-07-23T04:59:49;16.40;14.80;9.00
14880;PMS7003;7533;51.278;12.588;2022-07-23T05:04:52;13.40;12.60;9.00
14880;PMS7003;7533;51.278;12.588;2022-07-23T05:09:55;16.40;13.40;9.80
14880;PMS7003;7533;51.278;12.588;2022-07-23T05:14:59;15.40;13.80;8.60
14880;PMS7003;7533;51.278;12.588;2022-07-23T05:20:02;16.60;15.00;9.00
14880;PMS7003;7533;51.278;12.588;2022-07-23T05:25:06;14.40;14.40;9.40
14880;PMS7003;7533;51.278;12.588;2022-07-23T05:30:11;16.60;14.20;8.00
14880;PMS7003;7533;51.278;12.588;2022-07-23T05:35:17;13.60;11.40;8.60
14880;PMS7003;7533;51.278;12.588;2022-07-23T05:40:43;12.80;12.80;9.40
14880;PMS7003;7533;51.278;12.588;2022-07-23T05:45:47;11.20;9.20;7.00
14880;PMS7003;7533;51.278;12.588;2022-07-23T05:50:50;11.25;10.25;6.50
14880;PMS7003;7533;51.278;12.588;2022-07-23T05:56:02;13.80;12.60;8.00
14880;PMS7003;7533;51.278;12.588;2022-07-23T06:01:07;15.40;14.60;8.40
14880;PMS7003;7533;51.278;12.588;2022-07-23T06:06:19;18.00;16.00;9.60
14880;PMS7003;7533;51.278;12.588;2022-07-23T06:11:22;17.40;16.20;11.80
14880;PMS7003;7533;51.278;12.588;2022-07-23T06:16:27;15.60;14.40;10.00
14880;PMS7003;7533;51.278;12.588;2022-07-23T06:21:29;16.20;13.60;9.40
14880;PMS7003;7533;51.278;12.588;2022-07-23T06:26:50;17.80;16.80;9.80
14880;PMS7003;7533;51.278;12.588;2022-07-23T06:31:54;15.00;14.80;9.00
14880;PMS7003;7533;51.278;12.588;2022-07-23T06:36:58;11.80;11.60;7.60
14880;PMS7003;7533;51.278;12.588;2022-07-23T06:42:02;13.60;12.60;8.00
14880;PMS7003;7533;51.278;12.588;2022-07-23T06:47:15;10.80;9.60;6.60
14880;PMS7003;7533;51.278;12.588;2022-07-23T06:52:19;14.20;12.00;7.60
14880;PMS7003;7533;51.278;12.588;2022-07-23T06:57:22;14.20;12.60;8.40
14880;PMS7003;7533;51.278;12.588;2022-07-23T07:02:28;16.40;13.40;8.00
14880;PMS7003;7533;51.278;12.588;2022-07-23T07:07:31;11.00;11.00;8.50
14880;PMS7003;7533;51.278;12.588;2022-07-23T07:12:34;12.00;11.00;7.50
14880;PMS7003;7533;51.278;12.588;2022-07-23T07:17:38;13.20;11.00;7.60
14880;PMS7003;7533;51.278;12.588;2022-07-23T07:22:41;14.40;13.00;8.00
14880;PMS7003;7533;51.278;12.588;2022-07-23T07:27:44;12.60;12.60;8.00
14880;PMS7003;7533;51.278;12.588;2022-07-23T07:32:48;14.60;14.20;9.00
14880;PMS7003;7533;51.278;12.588;2022-07-23T07:37:57;12.20;12.20;7.80
14880;PMS7003;7533;51.278;12.588;2022-07-23T07:43:00;15.60;13.00;8.20
14880;PMS7003;7533;51.278;12.588;2022-07-23T07:48:06;12.60;11.40;8.20
14880;PMS7003;7533;51.278;12.588;2022-07-23T07:53:09;14.60;13.00;8.60
14880;PMS7003;7533;51.278;12.588;2022-07-23T07:58:12;15.60;15.00;9.60
14880;PMS7003;7533;51.278;12.588;2022-07-23T08:03:16;14.60;12.00;8.60
14880;PMS7003;7533;51.278;12.588;2022-07-23T08:08:20;15.00;13.40;8.00
14880;PMS7003;7533;51.278;12.588;2022-07-23T08:13:22;14.00;14.00;9.40
14880;PMS7003;7533;51.278;12.588;2022-07-23T08:18:27;17.20;16.00;9.60
14880;PMS7003;7533;51.278;12.588;2022-07-23T08:23:29;15.40;14.00;10.00
14880;PMS7003;7533;51.278;12.588;2022-07-23T08:28:33;15.60;14.00;10.00
14880;PMS7003;7533;51.278;12.588;2022-07-23T08:33:37;15.60;15.60;9.80
14880;PMS7003;7533;51.278;12.588;2022-07-23T08:38:40;17.00;15.80;9.40
14880;PMS7003;7533;51.278;12.588;2022-07-23T08:43:44;16.00;12.60;8.40
14880;PMS7003;7533;51.278;12.588;2022-07-23T08:48:48;18.00;15.20;9.00
14880;PMS7003;7533;51.278;12.588;2022-07-23T08:53:53;17.40;16.20;9.20
14880;PMS7003;7533;51.278;12.588;2022-07-23T08:58:59;17.60;16.60;10.20
14880;PMS7003;7533;51.278;12.588;2022-07-23T09:04:03;16.40;14.40;9.00
14880;PMS7003;7533;51.278;12.588;2022-07-23T09:09:15;18.00;16.60;9.60
14880;PMS7003;7533;51.278;12.588;2022-07-23T09:14:20;17.20;16.20;10.20
14880;PMS7003;7533;51.278;12.588;2022-07-23T09:19:40;17.80;17.80;11.40
14880;PMS7003;7533;51.278;12.588;2022-07-23T09:30:11;19.40;17.00;10.60
14880;PMS7003;7533;51.278;12.588;2022-07-23T09:35:16;18.80;16.80;10.80
14880;PMS7003;7533;51.278;12.588;2022-07-23T09:40:19;16.20;15.80;10.20
14880;PMS7003;7533;51.278;12.588;2022-07-23T09:45:22;17.40;14.60;10.20
14880;PMS7003;7533;51.278;12.588;2022-07-23T09:50:26;16.80;15.60;9.00
14880;PMS7003;7533;51.278;12.588;2022-07-23T09:55:31;19.40;17.20;10.20
14880;PMS7003;7533;51.278;12.588;2022-07-23T10:00:37;19.20;17.20;10.60
14880;PMS7003;7533;51.278;12.588;2022-07-23T10:05:41;16.60;16.20;11.60
14880;PMS7003;7533;51.278;12.588;2022-07-23T10:11:14;26.60;21.00;12.80
14880;PMS7003;7533;51.278;12.588;2022-07-23T10:16:33;23.80;21.60;14.40
14880;PMS7003;7533;51.278;12.588;2022-07-23T10:21:39;22.20;22.20;12.60
14880;PMS7003;7533;51.278;12.588;2022-07-23T10:26:47;20.00;17.60;12.00
14880;PMS7003;7533;51.278;12.588;2022-07-23T10:31:58;18.00;17.60;11.00
14880;PMS7003;7533;51.278;12.588;2022-07-23T10:37:13;20.20;19.20;12.20
14880;PMS7003;7533;51.278;12.588;2022-07-23T10:42:29;20.80;18.80;13.00
14880;PMS7003;7533;51.278;12.588;2022-07-23T10:47:36;21.80;21.60;14.40
14880;PMS7003;7533;51.278;12.588;2022-07-23T10:58:25;19.40;17.20;13.40
14880;PMS7003;7533;51.278;12.588;2022-07-23T11:03:55;18.40;18.20;11.40
14880;PMS7003;7533;51.278;12.588;2022-07-23T11:20:16;21.80;19.80;12.00
14880;PMS7003;7533;51.278;12.588;2022-07-23T11:25:29;20.60;18.00;11.40
14880;PMS7003;7533;51.278;12.588;2022-07-23T11:30:40;20.80;20.00;11.20
14880;PMS7003;7533;51.278;12.588;2022-07-23T11:35:45;20.60;19.00;11.60
14880;PMS7003;7533;51.278;12.588;2022-07-23T11:40:51;18.80;15.60;9.40
14880;PMS7003;7533;51.278;12.588;2022-07-23T11:45:58;21.00;17.00;9.20
14880;PMS7003;7533;51.278;12.588;2022-07-23T11:51:02;22.60;19.20;11.00
14880;PMS7003;7533;51.278;12.588;2022-07-23T11:56:05;19.60;17.00;11.00
14880;PMS7003;7533;51.278;12.588;2022-07-23T12:01:11;20.00;16.00;11.00
14880;PMS7003;7533;51.278;12.588;2022-07-23T12:06:14;18.40;16.40;11.60
14880;PMS7003;7533;51.278;12.588;2022-07-23T12:11:17;21.80;18.60;12.00
14880;PMS7003;7533;51.278;12.588;2022-07-23T12:16:21;19.60;18.20;11.20
14880;PMS7003;7533;51.278;12.588;2022-07-23T12:21:24;23.80;23.00;12.60
14880;PMS7003;7533;51.278;12.588;2022-07-23T12:26:27;21.80;20.60;12.40
14880;PMS7003;7533;51.278;12.588;2022-07-23T12:31:31;23.20;20.00;12.60
14880;PMS7003;7533;51.278;12.588;2022-07-23T12:36:38;22.60;21.60;13.80
14880;PMS7003;7533;51.278;12.588;2022-07-23T12:41:51;24.40;23.20;15.40
14880;PMS7003;7533;51.278;12.588;2022-07-23T12:46:56;24.60;22.40;13.60
14880;PMS7003;7533;51.278;12.588;2022-07-23T12:51:59;24.60;21.40;13.80
14880;PMS7003;7533;51.278;12.588;2022-07-23T12:57:02;23.80;22.20;12.60
14880;PMS7003;7533;51.278;12.588;2022-07-23T13:02:08;20.00;19.80;11.40
14880;PMS7003;7533;51.278;12.588;2022-07-23T13:07:14;24.00;21.80;14.40
14880;PMS7003;7533;51.278;12.588;2022-07-23T13:12:16;25.40;20.60;13.80
14880;PMS7003;7533;51.278;12.588;2022-07-23T13:17:20;24.00;19.80;11.60
14880;PMS7003;7533;51.278;12.588;2022-07-23T13:22:24;19.20;17.60;10.80
14880;PMS7003;7533;51.278;12.588;2022-07-23T13:27:27;22.00;18.60;11.60
14880;PMS7003;7533;51.278;12.588;2022-07-23T13:32:31;19.00;18.80;12.20
14880;PMS7003;7533;51.278;12.588;2022-07-23T13:37:34;23.00;19.80;13.60
14880;PMS7003;7533;51.278;12.588;2022-07-23T13:42:37;19.80;17.60;10.20
14880;PMS7003;7533;51.278;12.588;2022-07-23T13:47:42;18.00;17.80;12.20
14880;PMS7003;7533;51.278;12.588;2022-07-23T13:52:45;19.80;18.80;11.00
14880;PMS7003;7533;51.278;12.588;2022-07-23T13:57:48;19.60;18.00;11.00
14880;PMS7003;7533;51.278;12.588;2022-07-23T14:02:53;20.80;18.40;10.60
14880;PMS7003;7533;51.278;12.588;2022-07-23T14:07:57;23.00;19.80;10.20
14880;PMS7003;7533;51.278;12.588;2022-07-23T14:13:00;24.60;19.40;11.00
14880;PMS7003;7533;51.278;12.588;2022-07-23T14:18:05;19.40;17.60;11.80
14880;PMS7003;7533;51.278;12.588;2022-07-23T14:23:08;16.40;16.20;10.00
14880;PMS7003;7533;51.278;12.588;2022-07-23T14:28:14;18.60;17.20;11.40
14880;PMS7003;7533;51.278;12.588;2022-07-23T14:33:19;20.60;18.20;12.20
14880;PMS7003;7533;51.278;12.588;2022-07-23T14:38:22;18.00;16.60;11.00
14880;PMS7003;7533;51.278;12.588;2022-07-23T14:43:25;17.80;17.80;11.00
14880;PMS7003;7533;51.278;12.588;2022-07-23T14:48:29;16.20;16.20;9.00
14880;PMS7003;7533;51.278;12.588;2022-07-23T14:53:32;15.80;15.80;9.00
14880;PMS7003;7533;51.278;12.588;2022-07-23T14:58:35;20.40;18.00;12.40
14880;PMS7003;7533;51.278;12.588;2022-07-23T15:03:39;16.40;14.60;9.40
14880;PMS7003;7533;51.278;12.588;2022-07-23T15:08:43;14.20;14.20;10.40
14880;PMS7003;7533;51.278;12.588;2022-07-23T15:13:48;16.60;16.60;11.00
14880;PMS7003;7533;51.278;12.588;2022-07-23T15:18:53;15.40;13.20;10.80
14880;PMS7003;7533;51.278;12.588;2022-07-23T15:23:56;20.80;17.80;11.40
14880;PMS7003;7533;51.278;12.588;2022-07-23T15:29:01;16.60;16.60;10.00
14880;PMS7003;7533;51.278;12.588;2022-07-23T15:34:09;18.80;17.40;12.40
14880;PMS7003;7533;51.278;12.588;2022-07-23T15:39:12;17.40;16.20;11.40
14880;PMS7003;7533;51.278;12.588;2022-07-23T15:44:15;20.80;17.80;10.60
14880;PMS7003;7533;51.278;12.588;2022-07-23T15:49:31;21.40;20.00;12.60
14880;PMS7003;7533;51.278;12.588;2022-07-23T15:54:33;17.00;14.60;10.20
14880;PMS7003;7533;51.278;12.588;2022-07-23T15:59:37;19.40;18.40;11.60
14880;PMS7003;7533;51.278;12.588;2022-07-23T16:04:43;18.00;18.00;12.40
14880;PMS7003;7533;51.278;12.588;2022-07-23T16:09:46;22.60;20.80;13.40
14880;PMS7003;7533;51.278;12.588;2022-07-23T16:14:48;21.60;21.20;13.60
14880;PMS7003;7533;51.278;12.588;2022-07-23T16:19:53;26.40;23.00;16.60
14880;PMS7003;7533;51.278;12.588;2022-07-23T16:24:55;27.00;23.40;14.40
14880;PMS7003;7533;51.278;12.588;2022-07-23T16:29:58;24.80;23.80;13.80
14880;PMS7003;7533;51.278;12.588;2022-07-23T16:35:03;20.20;20.00;13.40
14880;PMS7003;7533;51.278;12.588;2022-07-23T16:40:14;23.80;20.20;14.20
14880;PMS7003;7533;51.278;12.588;2022-07-23T16:45:17;20.40;17.80;11.80
14880;PMS7003;7533;51.278;12.588;2022-07-23T16:50:21;24.80;23.00;14.20
14880;PMS7003;7533;51.278;12.588;2022-07-23T16:55:24;25.80;20.40;13.20
14880;PMS7003;7533;51.278;12.588;2022-07-23T17:00:27;22.60;19.20;12.00
14880;PMS7003;7533;51.278;12.588;2022-07-23T17:05:31;22.60;21.20;14.00
14880;PMS7003;7533;51.278;12.588;2022-07-23T17:10:34;19.20;18.80;13.40
14880;PMS7003;7533;51.278;12.588;2022-07-23T17:15:37;25.20;19.80;13.60
14880;PMS7003;7533;51.278;12.588;2022-07-23T17:20:41;20.00;19.00;13.00
14880;PMS7003;7533;51.278;12.588;2022-07-23T17:25:44;21.60;20.20;11.40
14880;PMS7003;7533;51.278;12.588;2022-07-23T17:30:47;19.60;18.20;12.80
14880;PMS7003;7533;51.278;12.588;2022-07-23T17:35:51;22.40;21.80;14.80
14880;PMS7003;7533;51.278;12.588;2022-07-23T17:40:56;23.00;21.80;14.00
14880;PMS7003;7533;51.278;12.588;2022-07-23T17:45:59;19.60;19.40;12.40
14880;PMS7003;7533;51.278;12.588;2022-07-23T17:51:03;22.20;20.80;13.40
14880;PMS7003;7533;51.278;12.588;2022-07-23T17:56:08;20.60;17.60;11.80
14880;PMS7003;7533;51.278;12.588;2022-07-23T18:01:11;21.80;20.60;13.00
14880;PMS7003;7533;51.278;12.588;2022-07-23T18:06:15;19.80;18.80;12.40
14880;PMS7003;7533;51.278;12.588;2022-07-23T18:11:18;24.40;23.40;15.60
14880;PMS7003;7533;51.278;12.588;2022-07-23T18:16:22;18.60;17.60;11.60
14880;PMS7003;7533;51.278;12.588;2022-07-23T18:21:26;24.00;19.40;12.80
14880;PMS7003;7533;51.278;12.588;2022-07-23T18:26:29;17.60;16.60;12.40
14880;PMS7003;7533;51.278;12.588;2022-07-23T18:31:32;23.20;20.80;13.60
14880;PMS7003;7533;51.278;12.588;2022-07-23T18:36:36;20.20;18.60;14.20
14880;PMS7003;7533;51.278;12.588;2022-07-23T18:41:39;20.00;17.60;12.60
14880;PMS7003;7533;51.278;12.588;2022-07-23T18:46:41;20.80;20.00;13.80
14880;PMS7003;7533;51.278;12.588;2022-07-23T18:51:46;25.20;22.80;15.20
14880;PMS7003;7533;51.278;12.588;2022-07-23T18:56:48;21.60;17.20;11.80
14880;PMS7003;7533;51.278;12.588;2022-07-23T19:01:57;22.80;21.00;13.00
14880;PMS7003;7533;51.278;12.588;2022-07-23T19:07:02;21.80;18.20;12.80
14880;PMS7003;7533;51.278;12.588;2022-07-23T19:12:05;21.60;17.20;13.00
14880;PMS7003;7533;51.278;12.588;2022-07-23T19:17:08;15.80;15.80;9.60
14880;PMS7003;7533;51.278;12.588;2022-07-23T19:22:12;14.40;14.20;10.00
14880;PMS7003;7533;51.278;12.588;2022-07-23T19:27:15;13.40;12.00;8.40
14880;PMS7003;7533;51.278;12.588;2022-07-23T19:32:19;13.80;11.20;7.80
14880;PMS7003;7533;51.278;12.588;2022-07-23T19:37:24;10.00;10.00;6.60
14880;PMS7003;7533;51.278;12.588;2022-07-23T19:42:26;11.00;10.00;7.20
14880;PMS7003;7533;51.278;12.588;2022-07-23T19:47:34;9.00;9.00;6.80
14880;PMS7003;7533;51.278;12.588;2022-07-23T19:52:38;9.60;9.40;6.20
14880;PMS7003;7533;51.278;12.588;2022-07-23T19:57:41;9.80;9.00;6.00
14880;PMS7003;7533;51.278;12.588;2022-07-23T20:02:44;10.60;8.40;6.00
14880;PMS7003;7533;51.278;12.588;2022-07-23T20:07:56;9.25;8.75;5.25
14880;PMS7003;7533;51.278;12.588;2022-07-23T20:12:59;6.20;6.00;4.60
14880;PMS7003;7533;51.278;12.588;2022-07-23T20:18:02;8.60;7.20;6.00
14880;PMS7003;7533;51.278;12.588;2022-07-23T20:23:06;8.80;8.80;6.00
14880;PMS7003;7533;51.278;12.588;2022-07-23T20:28:09;7.20;7.20;5.20
14880;PMS7003;7533;51.278;12.588;2022-07-23T20:33:12;8.40;8.20;6.00
14880;PMS7003;7533;51.278;12.588;2022-07-23T20:38:16;8.20;8.20;5.60
14880;PMS7003;7533;51.278;12.588;2022-07-23T20:43:19;10.80;10.20;6.20
14880;PMS7003;7533;51.278;12.588;2022-07-23T20:48:22;10.80;8.00;5.60
14880;PMS7003;7533;51.278;12.588;2022-07-23T20:53:30;8.60;8.00;5.00
14880;PMS7003;7533;51.278;12.588;2022-07-23T20:58:33;8.00;8.00;6.00
14880;PMS7003;7533;51.278;12.588;2022-07-23T21:03:35;8.60;8.60;6.40
14880;PMS7003;7533;51.278;12.588;2022-07-23T21:08:40;7.80;7.00;5.00
14880;PMS7003;7533;51.278;12.588;2022-07-23T21:13:42;9.40;8.60;5.00
14880;PMS7003;7533;51.278;12.588;2022-07-23T21:18:46;9.00;7.00;5.00
14880;PMS7003;7533;51.278;12.588;2022-07-23T21:23:50;9.40;8.00;6.00
14880;PMS7003;7533;51.278;12.588;2022-07-23T21:28:53;7.75;6.25;5.50
14880;PMS7003;7533;51.278;12.588;2022-07-23T21:33:56;10.00;9.40;7.00
14880;PMS7003;7533;51.278;12.588;2022-07-23T21:39:00;7.75;6.00;4.75
14880;PMS7003;7533;51.278;12.588;2022-07-23T21:44:04;9.75;9.75;6.00
14880;PMS7003;7533;51.278;12.588;2022-07-23T21:49:06;7.50;7.50;5.00
14880;PMS7003;7533;51.278;12.588;2022-07-23T21:54:12;7.00;7.00;6.00
14880;PMS7003;7533;51.278;12.588;2022-07-23T21:59:17;5.75;5.75;4.75
14880;PMS7003;7533;51.278;12.588;2022-07-23T22:04:20;7.00;7.00;4.75
14880;PMS7003;7533;51.278;12.588;2022-07-23T22:09:24;10.25;10.25;6.00
14880;PMS7003;7533;51.278;12.588;2022-07-23T22:14:27;8.00;7.20;5.20
14880;PMS7003;7533;51.278;12.588;2022-07-23T22:19:29;8.40;7.40;5.40
14880;PMS7003;7533;51.278;12.588;2022-07-23T22:24:34;8.20;8.20;5.00
14880;PMS7003;7533;51.278;12.588;2022-07-23T22:29:36;8.00;8.00;5.75
14880;PMS7003;7533;51.278;12.588;2022-07-23T22:34:43;8.20;8.20;5.60
14880;PMS7003;7533;51.278;12.588;2022-07-23T22:39:47;8.00;7.60;5.00
14880;PMS7003;7533;51.278;12.588;2022-07-23T22:44:49;7.75;7.75;6.00
14880;PMS7003;7533;51.278;12.588;2022-07-23T22:49:52;8.60;8.60;6.20
14880;PMS7003;7533;51.278;12.588;2022-07-23T22:54:57;10.00;8.40;5.00
14880;PMS7003;7533;51.278;12.588;2022-07-23T22:59:59;7.60;7.60;4.60
14880;PMS7003;7533;51.278;12.588;2022-07-23T23:05:02;6.60;6.60;5.20
14880;PMS7003;7533;51.278;12.588;2022-07-23T23:10:07;9.00;8.00;6.00
14880;PMS7003;7533;51.278;12.588;2022-07-23T23:15:10;9.00;7.20;6.00
14880;PMS7003;7533;51.278;12.588;2022-07-23T23:20:13;9.00;7.60;4.80
14880;PMS7003;7533;51.278;12.588;2022-07-23T23:25:17;7.60;7.60;4.80
14880;PMS7003;7533;51.278;12.588;2022-07-23T23:30:21;10.80;8.20;6.00
14880;PMS7003;7533;51.278;12.588;2022-07-23T23:35:24;8.00;8.00;5.00
14880;PMS7003;7533;51.278;12.588;2022-07-23T23:40:28;6.40;6.40;5.20
14880;PMS7003;7533;51.278;12.588;2022-07-23T23:45:30;8.20;7.00;5.20
14880;PMS7003;7533;51.278;12.588;2022-07-23T23:50:34;8.00;7.00;5.00
14880;PMS7003;7533;51.278;12.588;2022-07-23T23:55:38;8.75;7.75;5.50
